createdAt,value
2023-05-20T00:00:02.060Z,103050.31
2023-05-20T00:02:30.422Z,103052.59
2023-05-20T00:04:58.965Z,103055.09
2023-05-20T00:07:27.427Z,103059.88
2023-05-20T00:09:55.891Z,103064.06
2023-05-20T00:12:24.024Z,103062.78
2023-05-20T00:14:55.877Z,103063.63
2023-05-20T00:17:26.647Z,103065.16
2023-05-20T00:19:55.166Z,103065.00
2023-05-20T00:22:23.574Z,103048.50
2023-05-20T00:24:51.914Z,103051.88
2023-05-20T00:27:20.125Z,103052.44
2023-05-20T00:29:48.323Z,103055.75
2023-05-20T00:32:18.182Z,103055.75
2023-05-20T00:34:56.980Z,103058.41
2023-05-20T00:37:25.262Z,103060.09
2023-05-20T00:39:53.962Z,103046.94
2023-05-20T00:42:22.742Z,103039.13
2023-05-20T00:44:51.079Z,103050.59
2023-05-20T00:47:28.055Z,103038.44
2023-05-20T00:49:56.529Z,103049.06
2023-05-20T00:52:25.315Z,103048.06
2023-05-20T00:54:54.308Z,103043.91
2023-05-20T00:57:22.970Z,103043.75
2023-05-20T00:59:51.357Z,103036.47
2023-05-20T01:02:21.379Z,103037.31
2023-05-20T01:04:49.830Z,103031.28
2023-05-20T01:07:19.267Z,103026.69
2023-05-20T01:09:47.654Z,103026.81
2023-05-20T01:12:22.418Z,103027.25
2023-05-20T01:14:52.407Z,103021.25
2023-05-20T01:17:22.617Z,103017.75
2023-05-20T01:19:51.710Z,103021.53
2023-05-20T01:22:20.790Z,103015.53
2023-05-20T01:24:53.708Z,103021.84
2023-05-20T01:27:23.744Z,103026.31
2023-05-20T01:29:52.995Z,103018.63
2023-05-20T01:32:24.247Z,103009.91
2023-05-20T01:34:54.315Z,103013.56
2023-05-20T01:37:25.358Z,103012.06
2023-05-20T01:39:56.807Z,103002.25
2023-05-20T01:42:25.162Z,103001.41
2023-05-20T01:44:53.758Z,103005.63
2023-05-20T01:47:22.034Z,103004.78
2023-05-20T01:49:53.108Z,103012.09
2023-05-20T01:52:21.545Z,102999.75
2023-05-20T01:54:51.484Z,103001.44
2023-05-20T01:57:22.136Z,103005.06
2023-05-20T01:59:50.594Z,102995.59
2023-05-20T02:02:19.391Z,102999.06
2023-05-20T02:04:49.349Z,103000.06
2023-05-20T02:07:19.064Z,102985.78
2023-05-20T02:09:47.767Z,102982.97
2023-05-20T02:12:17.548Z,102977.41
2023-05-20T02:14:50.514Z,102974.75
2023-05-20T02:17:19.155Z,102969.88
2023-05-20T02:19:47.791Z,102972.53
2023-05-20T02:22:16.529Z,102977.03
2023-05-20T02:24:44.953Z,102976.19
2023-05-20T02:27:13.284Z,102974.63
2023-05-20T02:29:41.681Z,102977.84
2023-05-20T02:32:11.377Z,102978.97
2023-05-20T02:34:39.558Z,102987.94
2023-05-20T02:37:07.890Z,102974.63
2023-05-20T02:39:36.176Z,102974.63
2023-05-20T02:42:05.414Z,102972.97
2023-05-20T02:44:33.527Z,102972.13
2023-05-20T02:47:01.740Z,102975.63
2023-05-20T02:49:31.520Z,102975.63
2023-05-20T02:51:59.837Z,102970.16
2023-05-20T02:54:28.136Z,102970.03
2023-05-20T02:56:56.338Z,102969.34
2023-05-20T02:59:24.912Z,102952.56
2023-05-20T03:01:53.210Z,102942.78
2023-05-20T03:04:21.916Z,102948.09
2023-05-20T03:06:52.254Z,102953.56
2023-05-20T03:09:21.069Z,102947.25
2023-05-20T03:11:49.570Z,102943.47
2023-05-20T03:14:17.733Z,102941.09
2023-05-20T03:16:46.018Z,102933.81
2023-05-20T03:19:14.263Z,102934.53
2023-05-20T03:21:43.916Z,102923.91
2023-05-20T03:24:13.591Z,102927.38
2023-05-20T03:26:43.331Z,102923.34
2023-05-20T03:29:11.929Z,102926.84
2023-05-20T03:31:40.595Z,102924.34
2023-05-20T03:34:09.369Z,102921.81
2023-05-20T03:36:37.812Z,102926.28
2023-05-20T03:39:06.125Z,102922.94
2023-05-20T03:41:35.734Z,102908.69
2023-05-20T03:44:03.978Z,102904.34
2023-05-20T03:46:34.359Z,102906.19
2023-05-20T03:49:03.336Z,102899.31
2023-05-20T03:51:31.800Z,102899.47
2023-05-20T03:54:00.074Z,102907.84
2023-05-20T03:56:28.303Z,102899.59
2023-05-20T03:58:58.434Z,102893.56
2023-05-20T04:01:26.938Z,102894.72
2023-05-20T04:03:55.337Z,102904.50
2023-05-20T04:06:23.736Z,102895.00
2023-05-20T04:08:53.696Z,102896.97
2023-05-20T04:11:21.984Z,102898.91
2023-05-20T04:13:50.153Z,102896.41
2023-05-20T04:16:20.200Z,102900.06
2023-05-20T04:18:48.588Z,102894.75
2023-05-20T04:21:16.978Z,102893.94
2023-05-20T04:23:45.277Z,102881.91
2023-05-20T04:26:13.515Z,102881.09
2023-05-20T04:28:42.162Z,102883.03
2023-05-20T04:31:10.819Z,102893.66
2023-05-20T04:33:40.472Z,102898.81
2023-05-20T04:36:12.237Z,102896.41
2023-05-20T04:38:42.403Z,102894.75
2023-05-20T04:41:10.960Z,102890.28
2023-05-20T04:43:40.497Z,102900.75
2023-05-20T04:46:09.015Z,102903.69
2023-05-20T04:48:37.306Z,102904.38
2023-05-20T04:51:07.211Z,102903.41
2023-05-20T04:53:36.196Z,102902.56
2023-05-20T04:56:05.811Z,102904.38
2023-05-20T04:58:34.209Z,102905.38
2023-05-20T05:01:02.862Z,102907.19
2023-05-20T05:03:31.445Z,102901.19
2023-05-20T05:06:00.374Z,102903.69
2023-05-20T05:08:30.033Z,102906.06
2023-05-20T05:10:58.275Z,102897.25
2023-05-20T05:13:26.831Z,102901.44
2023-05-20T05:16:01.257Z,102897.81
2023-05-20T05:18:29.564Z,102897.09
2023-05-20T05:21:02.124Z,102907.03
2023-05-20T05:23:31.840Z,102904.38
2023-05-20T05:26:00.149Z,102913.19
2023-05-20T05:28:28.398Z,102908.44
2023-05-20T05:30:57.363Z,102903.13
2023-05-20T05:33:25.825Z,102894.84
2023-05-20T05:35:54.056Z,102894.84
2023-05-20T05:38:22.198Z,102896.66
2023-05-20T05:40:51.886Z,102891.50
2023-05-20T05:43:20.171Z,102883.38
2023-05-20T05:45:48.396Z,102888.56
2023-05-20T05:48:16.655Z,102892.06
2023-05-20T05:50:47.183Z,102889.94
2023-05-20T05:53:15.505Z,102886.00
2023-05-20T05:55:43.654Z,102891.31
2023-05-20T05:58:13.668Z,102893.00
2023-05-20T06:00:42.017Z,102896.50
2023-05-20T06:03:10.558Z,102893.69
2023-05-20T06:05:38.844Z,102898.31
2023-05-20T06:08:07.231Z,102894.69
2023-05-20T06:10:35.456Z,102886.41
2023-05-20T06:13:03.694Z,102889.06
2023-05-20T06:15:33.695Z,102891.59
2023-05-20T06:18:02.122Z,102900.38
2023-05-20T06:20:30.308Z,102896.91
2023-05-20T06:22:58.670Z,102892.69
2023-05-20T06:25:27.051Z,102885.72
2023-05-20T06:27:55.251Z,102891.03
2023-05-20T06:30:23.971Z,102895.34
2023-05-20T06:32:54.019Z,102904.16
2023-05-20T06:35:22.297Z,102902.34
2023-05-20T06:37:50.739Z,102896.59
2023-05-20T06:40:19.358Z,102902.75
2023-05-20T06:42:47.656Z,102902.44
2023-05-20T06:45:15.926Z,102904.41
2023-05-20T06:47:44.171Z,102898.78
2023-05-20T06:50:14.210Z,102898.13
2023-05-20T06:52:42.424Z,102895.47
2023-05-20T06:55:11.378Z,102892.66
2023-05-20T06:57:39.718Z,102886.50
2023-05-20T07:00:09.399Z,102890.16
2023-05-20T07:02:37.652Z,102880.50
2023-05-20T07:05:06.351Z,102890.16
2023-05-20T07:07:36.112Z,102887.34
2023-05-20T07:10:05.904Z,102886.50
2023-05-20T07:12:36.539Z,102884.84
2023-05-20T07:15:05.508Z,102886.81
2023-05-20T07:17:33.754Z,102885.94
2023-05-20T07:20:02.059Z,102887.50
2023-05-20T07:22:30.366Z,102891.25
2023-05-20T07:25:01.371Z,102899.41
2023-05-20T07:27:29.578Z,102899.69
2023-05-20T07:29:57.966Z,102890.44
2023-05-20T07:32:26.356Z,102891.97
2023-05-20T07:34:54.860Z,102889.31
2023-05-20T07:37:23.177Z,102892.81
2023-05-20T07:39:51.392Z,102887.34
2023-05-20T07:42:21.381Z,102887.06
2023-05-20T07:44:49.649Z,102884.41
2023-05-20T07:47:17.812Z,102884.63
2023-05-20T07:49:47.022Z,102890.31
2023-05-20T07:52:15.321Z,102889.25
2023-05-20T07:54:43.599Z,102903.06
2023-05-20T07:57:12.158Z,102907.13
2023-05-20T07:59:41.809Z,102906.66
2023-05-20T08:02:10.117Z,102913.50
2023-05-20T08:04:38.826Z,102912.81
2023-05-20T08:07:07.351Z,102901.75
2023-05-20T08:09:36.236Z,102898.63
2023-05-20T08:12:04.744Z,102895.97
2023-05-20T08:14:33.024Z,102898.63
2023-05-20T08:17:02.801Z,102898.75
2023-05-20T08:19:31.204Z,102895.28
2023-05-20T08:22:00.009Z,102894.97
2023-05-20T08:24:28.342Z,102896.81
2023-05-20T08:26:56.708Z,102895.81
2023-05-20T08:29:25.419Z,102882.53
2023-05-20T08:31:53.742Z,102877.88
2023-05-20T08:34:23.348Z,102881.06
2023-05-20T08:36:51.620Z,102876.13
2023-05-20T08:39:19.833Z,102874.19
2023-05-20T08:41:49.046Z,102876.38
2023-05-20T08:44:20.317Z,102873.41
2023-05-20T08:46:50.154Z,102867.97
2023-05-20T08:49:18.679Z,102871.44
2023-05-20T08:51:49.309Z,102876.91
2023-05-20T08:54:19.233Z,102874.63
2023-05-20T08:56:47.971Z,102872.66
2023-05-20T08:59:17.014Z,102868.00
2023-05-20T09:01:45.915Z,102868.16
2023-05-20T09:04:14.177Z,102857.25
2023-05-20T09:06:46.178Z,102856.91
2023-05-20T09:09:16.224Z,102853.41
2023-05-20T09:11:44.930Z,102855.94
2023-05-20T09:14:13.140Z,102856.78
2023-05-20T09:16:42.644Z,102864.44
2023-05-20T09:19:11.918Z,102858.16
2023-05-20T09:21:43.195Z,102866.13
2023-05-20T09:24:11.491Z,102861.63
2023-05-20T09:26:41.629Z,102862.59
2023-05-20T09:29:09.878Z,102866.97
2023-05-20T09:31:39.021Z,102865.81
2023-05-20T09:34:08.734Z,102863.69
2023-05-20T09:36:37.420Z,102867.47
2023-05-20T09:39:07.014Z,102870.59
2023-05-20T09:41:39.763Z,102876.16
2023-05-20T09:44:10.099Z,102869.66
2023-05-20T09:46:39.808Z,102871.19
2023-05-20T09:49:08.502Z,102874.03
2023-05-20T09:51:37.142Z,102868.16
2023-05-20T09:54:08.525Z,102868.47
2023-05-20T09:56:38.077Z,102865.25
2023-05-20T09:59:09.290Z,102863.94
2023-05-20T10:01:37.508Z,102863.75
2023-05-20T10:04:08.742Z,102857.06
2023-05-20T10:06:57.673Z,102851.09
2023-05-20T10:09:49.814Z,102843.47
2023-05-20T10:12:28.994Z,102840.66
2023-05-20T10:15:10.109Z,102840.66
2023-05-20T10:17:46.883Z,102841.50
2023-05-20T10:20:15.708Z,102849.66
2023-05-20T10:22:45.461Z,102847.53
2023-05-20T10:25:25.513Z,102845.25
2023-05-20T10:27:53.871Z,102849.44
2023-05-20T10:30:24.072Z,102848.66
2023-05-20T10:32:56.815Z,102854.22
2023-05-20T10:35:27.324Z,102844.44
2023-05-20T10:37:56.891Z,102838.06
2023-05-20T10:40:26.956Z,102840.59
2023-05-20T10:42:55.248Z,102834.63
2023-05-20T10:45:29.224Z,102842.50
2023-05-20T10:47:58.514Z,102835.47
2023-05-20T10:50:31.758Z,102835.84
2023-05-20T10:53:09.388Z,102837.66
2023-05-20T10:55:42.505Z,102839.66
2023-05-20T10:58:11.684Z,102834.69
2023-05-20T11:00:41.636Z,102835.03
2023-05-20T11:03:11.984Z,102830.06
2023-05-20T11:05:41.709Z,102830.41
2023-05-20T11:08:27.196Z,102824.25
2023-05-20T11:10:58.037Z,102816.97
2023-05-20T11:13:26.872Z,102817.09
2023-05-20T11:15:57.611Z,102822.13
2023-05-20T11:18:25.973Z,102824.28
2023-05-20T11:20:54.532Z,102820.50
2023-05-20T11:23:23.471Z,102815.50
2023-05-20T11:25:52.624Z,102820.19
2023-05-20T11:28:21.833Z,102816.50
2023-05-20T11:30:50.547Z,102814.19
2023-05-20T11:33:20.726Z,102805.22
2023-05-20T11:35:50.970Z,102815.56
2023-05-20T11:38:20.831Z,102811.59
2023-05-20T11:40:54.333Z,102812.41
2023-05-20T11:43:24.605Z,102819.72
2023-05-20T11:45:55.952Z,102813.72
2023-05-20T11:48:26.007Z,102814.75
2023-05-20T11:50:55.716Z,102809.72
2023-05-20T11:53:25.607Z,102810.75
2023-05-20T11:55:56.191Z,102813.41
2023-05-20T11:58:26.442Z,102816.75
2023-05-20T12:01:05.242Z,102810.97
2023-05-20T12:03:39.538Z,102807.81
2023-05-20T12:06:08.033Z,102804.66
2023-05-20T12:08:36.315Z,102807.78
2023-05-20T12:11:04.478Z,102799.47
2023-05-20T12:13:34.911Z,102805.50
2023-05-20T12:16:04.422Z,102809.81
2023-05-20T12:18:33.104Z,102817.00
2023-05-20T12:21:02.879Z,102806.81
2023-05-20T12:23:34.380Z,102806.31
2023-05-20T12:26:02.912Z,102797.31
2023-05-20T12:28:32.164Z,102804.31
2023-05-20T12:31:01.139Z,102803.66
2023-05-20T12:33:29.814Z,102801.31
2023-05-20T12:35:58.148Z,102796.50
2023-05-20T12:38:28.194Z,102798.97
2023-05-20T12:40:56.759Z,102800.63
2023-05-20T12:43:25.001Z,102792.16
2023-05-20T12:45:53.590Z,102796.28
2023-05-20T12:48:21.955Z,102792.78
2023-05-20T12:50:50.149Z,102788.09
2023-05-20T12:53:18.383Z,102787.25
2023-05-20T12:55:48.073Z,102781.59
2023-05-20T12:58:16.273Z,102782.59
2023-05-20T13:00:44.527Z,102771.59
2023-05-20T13:03:13.084Z,102772.63
2023-05-20T13:05:41.440Z,102769.47
2023-05-20T13:08:11.045Z,102775.66
2023-05-20T13:10:39.499Z,102777.31
2023-05-20T13:13:09.134Z,102774.31
2023-05-20T13:15:37.474Z,102770.47
2023-05-20T13:18:07.151Z,102767.63
2023-05-20T13:20:35.903Z,102767.63
2023-05-20T13:23:04.460Z,102769.00
2023-05-20T13:25:33.369Z,102769.31
2023-05-20T13:28:01.613Z,102758.00
2023-05-20T13:30:31.142Z,102758.31
2023-05-20T13:33:00.855Z,102754.31
2023-05-20T13:35:29.245Z,102760.81
2023-05-20T13:37:57.605Z,102754.13
2023-05-20T13:40:26.612Z,102746.97
2023-05-20T13:42:55.437Z,102740.81
2023-05-20T13:45:23.800Z,102744.97
2023-05-20T13:47:53.413Z,102741.97
2023-05-20T13:50:21.634Z,102743.78
2023-05-20T13:52:49.979Z,102737.97
2023-05-20T13:55:18.254Z,102742.47
2023-05-20T13:57:46.488Z,102736.63
2023-05-20T14:00:15.788Z,102743.63
2023-05-20T14:02:44.006Z,102737.97
2023-05-20T14:05:14.932Z,102730.28
2023-05-20T14:07:43.266Z,102729.13
2023-05-20T14:10:12.155Z,102729.63
2023-05-20T14:12:40.407Z,102729.78
2023-05-20T14:15:09.688Z,102722.97
2023-05-20T14:17:37.879Z,102719.97
2023-05-20T14:20:07.483Z,102721.63
2023-05-20T14:22:37.263Z,102723.28
2023-05-20T14:25:06.313Z,102718.28
2023-05-20T14:27:34.619Z,102722.28
2023-05-20T14:30:02.756Z,102721.97
2023-05-20T14:32:31.040Z,102721.31
2023-05-20T14:35:00.161Z,102722.81
2023-05-20T14:37:28.493Z,102721.47
2023-05-20T14:39:58.226Z,102713.31
2023-05-20T14:42:26.717Z,102712.31
2023-05-20T14:44:54.936Z,102716.09
2023-05-20T14:47:23.306Z,102716.59
2023-05-20T14:49:51.595Z,102714.63
2023-05-20T14:52:20.068Z,102709.94
2023-05-20T14:54:48.528Z,102704.78
2023-05-20T14:57:18.603Z,102706.44
2023-05-20T14:59:46.932Z,102712.31
2023-05-20T15:02:16.299Z,102707.78
2023-05-20T15:04:46.733Z,102696.47
2023-05-20T15:07:15.507Z,102680.47
2023-05-20T15:09:43.928Z,102680.94
2023-05-20T15:12:12.758Z,102678.28
2023-05-20T15:14:42.363Z,102678.28
2023-05-20T15:17:10.611Z,102672.13
2023-05-20T15:19:41.402Z,102667.59
2023-05-20T15:22:10.327Z,102662.66
2023-05-20T15:24:38.595Z,102660.31
2023-05-20T15:27:07.144Z,102660.66
2023-05-20T15:29:35.699Z,102663.31
2023-05-20T15:32:06.084Z,102653.47
2023-05-20T15:34:34.713Z,102657.31
2023-05-20T15:37:03.343Z,102661.13
2023-05-20T15:39:31.678Z,102666.94
2023-05-20T15:42:02.162Z,102666.31
2023-05-20T15:44:30.422Z,102663.47
2023-05-20T15:46:58.732Z,102666.47
2023-05-20T15:49:28.940Z,102664.66
2023-05-20T15:52:03.415Z,102665.34
2023-05-20T15:54:33.168Z,102649.31
2023-05-20T15:57:02.714Z,102651.66
2023-05-20T15:59:31.042Z,102653.66
2023-05-20T16:01:59.536Z,102650.31
2023-05-20T16:04:29.705Z,102661.28
2023-05-20T16:06:57.916Z,102665.44
2023-05-20T16:09:26.200Z,102665.78
2023-05-20T16:11:54.410Z,102660.47
2023-05-20T16:14:22.651Z,102658.28
2023-05-20T16:16:50.858Z,102652.63
2023-05-20T16:19:19.123Z,102652.97
2023-05-20T16:21:48.925Z,102644.78
2023-05-20T16:24:17.530Z,102651.78
2023-05-20T16:26:45.895Z,102648.97
2023-05-20T16:29:16.407Z,102639.31
2023-05-20T16:31:46.848Z,102641.97
2023-05-20T16:34:16.546Z,102642.97
2023-05-20T16:36:46.398Z,102648.63
2023-05-20T16:39:16.603Z,102637.97
2023-05-20T16:41:44.869Z,102626.97
2023-05-20T16:44:13.146Z,102628.66
2023-05-20T16:46:41.439Z,102626.00
2023-05-20T16:49:09.845Z,102627.81
2023-05-20T16:51:38.171Z,102616.50
2023-05-20T16:54:06.610Z,102617.66
2023-05-20T16:56:36.885Z,102612.50
2023-05-20T16:59:05.233Z,102610.00
2023-05-20T17:01:33.591Z,102603.03
2023-05-20T17:04:02.014Z,102603.03
2023-05-20T17:06:34.558Z,102594.16
2023-05-20T17:09:04.439Z,102582.84
2023-05-20T17:11:32.714Z,102586.53
2023-05-20T17:14:03.184Z,102572.06
2023-05-20T17:16:31.489Z,102590.34
2023-05-20T17:18:59.893Z,102584.66
2023-05-20T17:21:28.413Z,102594.16
2023-05-20T17:23:56.715Z,102590.00
2023-05-20T17:26:26.149Z,102594.00
2023-05-20T17:28:54.375Z,102587.31
2023-05-20T17:31:24.234Z,102585.31
2023-05-20T17:33:52.536Z,102582.44
2023-05-20T17:36:22.662Z,102579.28
2023-05-20T17:38:51.634Z,102586.91
2023-05-20T17:41:19.970Z,102592.91
2023-05-20T17:43:48.276Z,102580.59
2023-05-20T17:46:16.638Z,102583.91
2023-05-20T17:48:46.242Z,102574.78
2023-05-20T17:51:14.502Z,102573.09
2023-05-20T17:53:42.708Z,102569.28
2023-05-20T17:56:11.108Z,102574.31
2023-05-20T17:58:39.348Z,102573.84
2023-05-20T18:01:09.407Z,102571.00
2023-05-20T18:03:39.878Z,102569.19
2023-05-20T18:06:09.738Z,102569.69
2023-05-20T18:08:38.799Z,102577.81
2023-05-20T18:11:07.378Z,102574.31
2023-05-20T18:13:35.705Z,102573.50
2023-05-20T18:16:04.096Z,102572.00
2023-05-20T18:18:32.416Z,102576.00
2023-05-20T18:21:00.794Z,102583.25
2023-05-20T18:23:30.558Z,102590.59
2023-05-20T18:25:58.842Z,102585.59
2023-05-20T18:28:27.024Z,102584.94
2023-05-20T18:30:55.816Z,102585.09
2023-05-20T18:33:24.956Z,102589.56
2023-05-20T18:35:54.260Z,102587.91
2023-05-20T18:38:23.394Z,102584.59
2023-05-20T18:40:53.111Z,102579.41
2023-05-20T18:43:21.339Z,102568.94
2023-05-20T18:45:49.683Z,102564.56
2023-05-20T18:48:26.262Z,102564.56
2023-05-20T18:50:56.389Z,102561.25
2023-05-20T18:53:24.596Z,102563.91
2023-05-20T18:55:54.308Z,102564.22
2023-05-20T18:58:22.831Z,102568.91
2023-05-20T19:00:51.205Z,102567.72
2023-05-20T19:03:19.817Z,102576.88
2023-05-20T19:05:48.157Z,102576.69
2023-05-20T19:08:16.540Z,102571.38
2023-05-20T19:10:45.027Z,102567.88
2023-05-20T19:13:14.921Z,102566.88
2023-05-20T19:15:43.361Z,102569.88
2023-05-20T19:18:11.804Z,102568.22
2023-05-20T19:20:40.149Z,102567.19
2023-05-20T19:23:08.465Z,102570.25
2023-05-20T19:25:36.977Z,102571.22
2023-05-20T19:28:06.001Z,102569.72
2023-05-20T19:30:35.751Z,102568.91
2023-05-20T19:33:05.861Z,102568.22
2023-05-20T19:35:34.910Z,102569.22
2023-05-20T19:38:05.029Z,102563.88
2023-05-20T19:40:33.313Z,102566.72
2023-05-20T19:43:01.421Z,102563.53
2023-05-20T19:45:29.850Z,102562.88
2023-05-20T19:48:00.064Z,102561.53
2023-05-20T19:50:28.433Z,102561.19
2023-05-20T19:52:56.624Z,102559.50
2023-05-20T19:55:24.915Z,102573.13
2023-05-20T19:57:53.717Z,102569.13
2023-05-20T20:00:22.668Z,102577.41
2023-05-20T20:02:51.425Z,102568.59
2023-05-20T20:05:23.767Z,102562.63
2023-05-20T20:07:52.181Z,102561.78
2023-05-20T20:10:20.345Z,102565.59
2023-05-20T20:12:48.963Z,102568.41
2023-05-20T20:15:17.506Z,102572.03
2023-05-20T20:17:52.070Z,102569.38
2023-05-20T20:20:23.543Z,102561.56
2023-05-20T20:22:51.993Z,102559.06
2023-05-20T20:25:21.745Z,102567.38
2023-05-20T20:27:50.270Z,102567.84
2023-05-20T20:30:18.587Z,102566.00
2023-05-20T20:32:48.387Z,102560.50
2023-05-20T20:35:17.245Z,102565.00
2023-05-20T20:37:46.856Z,102571.31
2023-05-20T20:40:15.173Z,102560.81
2023-05-20T20:42:45.455Z,102565.28
2023-05-20T20:45:13.825Z,102562.09
2023-05-20T20:47:44.100Z,102571.06
2023-05-20T20:50:12.854Z,102568.25
2023-05-20T20:52:42.864Z,102574.72
2023-05-20T20:55:13.091Z,102575.56
2023-05-20T20:57:42.170Z,102581.72
2023-05-20T21:00:16.701Z,102578.22
2023-05-20T21:02:44.951Z,102570.25
2023-05-20T21:05:14.681Z,102577.22
2023-05-20T21:07:44.732Z,102578.22
2023-05-20T21:10:14.629Z,102564.94
2023-05-20T21:12:42.791Z,102563.28
2023-05-20T21:15:12.647Z,102556.97
2023-05-20T21:17:40.988Z,102557.25
2023-05-20T21:20:10.277Z,102558.94
2023-05-20T21:22:38.469Z,102556.97
2023-05-20T21:25:07.750Z,102559.78
2023-05-20T21:27:37.323Z,102556.28
2023-05-20T21:30:06.475Z,102548.47
2023-05-20T21:32:34.816Z,102555.59
2023-05-20T21:35:03.230Z,102555.78
2023-05-20T21:37:32.086Z,102545.13
2023-05-20T21:40:00.301Z,102547.97
2023-05-20T21:42:29.079Z,102558.59
2023-05-20T21:44:58.850Z,102547.09
2023-05-20T21:47:27.188Z,102544.44
2023-05-20T21:49:55.400Z,102550.75
2023-05-20T21:52:23.587Z,102536.78
2023-05-20T21:54:51.885Z,102533.28
2023-05-20T21:57:20.054Z,102533.28
2023-05-20T21:59:48.985Z,102533.44
2023-05-20T22:02:18.856Z,102528.28
2023-05-20T22:04:49.393Z,102539.56
2023-05-20T22:07:17.598Z,102531.09
2023-05-20T22:09:45.890Z,102532.94
2023-05-20T22:12:15.607Z,102527.91
2023-05-20T22:14:43.800Z,102531.56
2023-05-20T22:17:12.125Z,102527.91
2023-05-20T22:19:41.669Z,102529.75
2023-05-20T22:22:09.848Z,102524.56
2023-05-20T22:24:38.193Z,102525.09
2023-05-20T22:27:06.768Z,102526.91
2023-05-20T22:29:35.294Z,102526.75
2023-05-20T22:32:03.667Z,102532.94
2023-05-20T22:34:32.337Z,102526.75
2023-05-20T22:37:02.289Z,102518.94
2023-05-20T22:39:30.653Z,102518.13
2023-05-20T22:41:58.879Z,102521.78
2023-05-20T22:44:27.153Z,102522.78
2023-05-20T22:46:55.326Z,102521.91
2023-05-20T22:49:25.260Z,102522.91
2023-05-20T22:51:53.857Z,102526.41
2023-05-20T22:54:23.479Z,102529.88
2023-05-20T22:56:56.832Z,102530.88
2023-05-20T22:59:25.282Z,102527.56
2023-05-20T23:01:54.459Z,102524.91
2023-05-20T23:04:22.675Z,102522.06
2023-05-20T23:06:53.981Z,102522.91
2023-05-20T23:09:23.669Z,102516.59
2023-05-20T23:11:51.961Z,102522.78
2023-05-20T23:14:21.326Z,102516.59
2023-05-20T23:16:49.587Z,102516.59
2023-05-20T23:19:18.082Z,102512.28
2023-05-20T23:21:46.831Z,102516.75
2023-05-20T23:24:15.622Z,102511.63
2023-05-20T23:26:45.132Z,102510.63
2023-05-20T23:29:13.399Z,102518.59
2023-05-20T23:31:41.830Z,102517.75
2023-05-20T23:34:10.217Z,102507.13
2023-05-20T23:36:42.191Z,102516.09
2023-05-20T23:39:10.603Z,102510.91
2023-05-20T23:41:38.756Z,102507.31
2023-05-20T23:44:08.436Z,102508.13
2023-05-20T23:46:38.111Z,102506.44
2023-05-20T23:49:06.845Z,102513.56
2023-05-20T23:51:35.842Z,102504.78
2023-05-20T23:54:04.102Z,102504.94
2023-05-20T23:56:32.362Z,102498.97
2023-05-20T23:59:00.500Z,102496.63
